sensor_id;sensor_type;location;lat;lon;timestamp;pressure;altitude;pressure_sealevel;temperature;humidity
33155;BME280;19511;42.682;23.332;2022-09-12T00:03:08;95000.25;;;15.22;100.00
33155;BME280;19511;42.682;23.332;2022-09-12T00:05:43;95001.56;;;15.17;100.00
33155;BME280;19511;42.682;23.332;2022-09-12T00:08:09;94943.50;;;14.77;100.00
33155;BME280;19511;42.682;23.332;2022-09-12T00:10:42;95013.06;;;15.19;100.00
33155;BME280;19511;42.682;23.332;2022-09-12T00:13:09;94958.41;;;14.83;100.00
33155;BME280;19511;42.682;23.332;2022-09-12T00:15:39;94990.50;;;15.00;100.00
33155;BME280;19511;42.682;23.332;2022-09-12T00:18:05;95019.72;;;15.09;100.00
33155;BME280;19511;42.682;23.332;2022-09-12T00:20:31;95016.94;;;15.09;100.00
33155;BME280;19511;42.682;23.332;2022-09-12T00:22:56;94949.81;;;14.64;100.00
33155;BME280;19511;42.682;23.332;2022-09-12T00:25:22;94952.59;;;14.64;100.00
33155;BME280;19511;42.682;23.332;2022-09-12T00:27:47;95019.94;;;15.01;100.00
33155;BME280;19511;42.682;23.332;2022-09-12T00:30:13;95011.69;;;14.98;100.00
33155;BME280;19511;42.682;23.332;2022-09-12T00:32:38;95010.47;;;14.99;100.00
33155;BME280;19511;42.682;23.332;2022-09-12T00:35:04;94963.72;;;14.64;100.00
33155;BME280;19511;42.682;23.332;2022-09-12T00:37:29;95007.22;;;15.00;100.00
33155;BME280;19511;42.682;23.332;2022-09-12T00:39:55;94990.28;;;14.82;100.00
33155;BME280;19511;42.682;23.332;2022-09-12T00:42:20;95012.81;;;15.00;100.00
33155;BME280;19511;42.682;23.332;2022-09-12T00:44:50;95012.94;;;15.10;100.00
33155;BME280;19511;42.682;23.332;2022-09-12T00:47:20;95015.16;;;15.02;100.00
33155;BME280;19511;42.682;23.332;2022-09-12T00:49:59;95016.47;;;14.97;100.00
33155;BME280;19511;42.682;23.332;2022-09-12T00:52:30;95019.81;;;14.92;100.00
33155;BME280;19511;42.682;23.332;2022-09-12T00:55:12;95012.88;;;14.84;100.00
33155;BME280;19511;42.682;23.332;2022-09-12T00:57:49;95005.41;;;14.81;100.00
33155;BME280;19511;42.682;23.332;2022-09-12T01:00:19;94960.63;;;14.46;100.00
33155;BME280;19511;42.682;23.332;2022-09-12T01:02:49;95008.06;;;14.72;100.00
33155;BME280;19511;42.682;23.332;2022-09-12T01:05:16;95001.03;;;14.67;100.00
33155;BME280;19511;42.682;23.332;2022-09-12T01:07:42;94951.13;;;14.30;100.00
33155;BME280;19511;42.682;23.332;2022-09-12T01:10:09;94997.84;;;14.52;100.00
33155;BME280;19511;42.682;23.332;2022-09-12T01:12:37;95000.63;;;14.52;100.00
33155;BME280;19511;42.682;23.332;2022-09-12T01:15:05;94975.63;;;14.35;100.00
33155;BME280;19511;42.682;23.332;2022-09-12T01:17:40;94995.94;;;14.49;100.00
33155;BME280;19511;42.682;23.332;2022-09-12T01:30:54;95019.25;;;14.55;100.00
33155;BME280;19511;42.682;23.332;2022-09-12T01:37:03;95003.25;;;14.43;100.00
33155;BME280;19511;42.682;23.332;2022-09-12T01:41:53;94996.56;;;14.40;100.00
33155;BME280;19511;42.682;23.332;2022-09-12T01:50:06;94990.38;;;14.49;100.00
33155;BME280;19511;42.682;23.332;2022-09-12T01:57:45;94931.88;;;14.07;100.00
33155;BME280;19511;42.682;23.332;2022-09-12T02:00:13;94985.41;;;14.27;100.00
33155;BME280;19511;42.682;23.332;2022-09-12T02:05:41;94979.44;;;14.12;100.00
33155;BME280;19511;42.682;23.332;2022-09-12T02:08:30;94970.41;;;14.08;100.00
33155;BME280;19511;42.682;23.332;2022-09-12T02:11:08;94989.00;;;14.11;100.00
33155;BME280;19511;42.682;23.332;2022-09-12T02:13:35;94986.44;;;14.17;100.00
33155;BME280;19511;42.682;23.332;2022-09-12T02:16:08;94995.69;;;14.14;100.00
33155;BME280;19511;42.682;23.332;2022-09-12T02:18:59;94958.50;;;13.91;100.00
33155;BME280;19511;42.682;23.332;2022-09-12T02:21:28;94995.00;;;14.10;100.00
33155;BME280;19511;42.682;23.332;2022-09-12T02:23:58;94990.66;;;14.09;100.00
33155;BME280;19511;42.682;23.332;2022-09-12T02:26:47;94988.53;;;14.13;100.00
33155;BME280;19511;42.682;23.332;2022-09-12T02:29:14;94982.75;;;14.07;100.00
33155;BME280;19511;42.682;23.332;2022-09-12T02:31:57;94985.09;;;14.09;100.00
33155;BME280;19511;42.682;23.332;2022-09-12T02:34:45;94985.25;;;14.01;100.00
33155;BME280;19511;42.682;23.332;2022-09-12T02:39:49;94939.53;;;13.57;100.00
33155;BME280;19511;42.682;23.332;2022-09-12T02:42:15;94985.28;;;13.85;100.00
33155;BME280;19511;42.682;23.332;2022-09-12T02:44:40;94993.00;;;13.94;100.00
33155;BME280;19511;42.682;23.332;2022-09-12T02:47:11;94999.19;;;13.85;100.00
33155;BME280;19511;42.682;23.332;2022-09-12T02:49:39;94986.50;;;13.84;100.00
33155;BME280;19511;42.682;23.332;2022-09-12T02:52:04;94990.84;;;13.85;100.00
33155;BME280;19511;42.682;23.332;2022-09-12T02:54:31;94988.16;;;13.81;100.00
33155;BME280;19511;42.682;23.332;2022-09-12T02:56:56;94929.38;;;13.33;100.00
33155;BME280;19511;42.682;23.332;2022-09-12T02:59:23;94995.56;;;13.71;100.00
33155;BME280;19511;42.682;23.332;2022-09-12T03:05:13;95007.34;;;13.76;100.00
33155;BME280;19511;42.682;23.332;2022-09-12T03:07:50;95009.97;;;13.83;100.00
33155;BME280;19511;42.682;23.332;2022-09-12T03:15:48;95008.41;;;13.65;100.00
33155;BME280;19511;42.682;23.332;2022-09-12T03:18:28;94985.81;;;13.47;100.00
33155;BME280;19511;42.682;23.332;2022-09-12T03:24:23;94999.03;;;13.59;100.00
33155;BME280;19511;42.682;23.332;2022-09-12T03:26:51;95002.84;;;13.65;100.00
33155;BME280;19511;42.682;23.332;2022-09-12T03:29:19;95003.53;;;13.69;100.00
33155;BME280;19511;42.682;23.332;2022-09-12T03:31:57;95017.44;;;13.69;100.00
33155;BME280;19511;42.682;23.332;2022-09-12T03:34:24;94948.97;;;13.26;100.00
33155;BME280;19511;42.682;23.332;2022-09-12T03:36:50;95001.97;;;13.68;100.00
33155;BME280;19511;42.682;23.332;2022-09-12T03:39:16;94952.09;;;13.28;100.00
33155;BME280;19511;42.682;23.332;2022-09-12T03:41:42;95001.13;;;13.71;100.00
33155;BME280;19511;42.682;23.332;2022-09-12T03:44:07;95016.59;;;13.73;100.00
33155;BME280;19511;42.682;23.332;2022-09-12T03:46:33;95005.03;;;13.74;100.00
33155;BME280;19511;42.682;23.332;2022-09-12T03:48:59;95002.41;;;13.67;100.00
33155;BME280;19511;42.682;23.332;2022-09-12T03:51:25;95013.09;;;13.68;100.00
33155;BME280;19511;42.682;23.332;2022-09-12T03:53:50;94999.38;;;13.61;100.00
33155;BME280;19511;42.682;23.332;2022-09-12T03:56:16;94999.19;;;13.68;100.00
33155;BME280;19511;42.682;23.332;2022-09-12T03:58:42;95012.84;;;13.79;100.00
33155;BME280;19511;42.682;23.332;2022-09-12T04:01:16;94945.53;;;13.38;100.00
33155;BME280;19511;42.682;23.332;2022-09-12T04:03:44;95000.41;;;13.67;100.00
33155;BME280;19511;42.682;23.332;2022-09-12T04:06:12;95002.03;;;13.81;100.00
33155;BME280;19511;42.682;23.332;2022-09-12T04:08:39;94959.75;;;13.41;100.00
33155;BME280;19511;42.682;23.332;2022-09-12T04:11:10;95007.19;;;13.66;100.00
33155;BME280;19511;42.682;23.332;2022-09-12T04:13:37;95007.97;;;13.67;100.00
33155;BME280;19511;42.682;23.332;2022-09-12T04:16:03;94953.06;;;13.38;100.00
33155;BME280;19511;42.682;23.332;2022-09-12T04:18:29;94949.56;;;13.34;100.00
33155;BME280;19511;42.682;23.332;2022-09-12T04:20:55;94957.25;;;13.46;100.00
33155;BME280;19511;42.682;23.332;2022-09-12T04:23:21;95018.13;;;13.90;100.00
33155;BME280;19511;42.682;23.332;2022-09-12T04:25:54;94993.81;;;13.78;100.00
33155;BME280;19511;42.682;23.332;2022-09-12T04:28:20;95011.50;;;13.84;100.00
33155;BME280;19511;42.682;23.332;2022-09-12T04:30:46;94962.47;;;13.44;100.00
33155;BME280;19511;42.682;23.332;2022-09-12T04:33:11;95015.84;;;13.85;100.00
33155;BME280;19511;42.682;23.332;2022-09-12T04:35:37;95016.56;;;13.89;100.00
33155;BME280;19511;42.682;23.332;2022-09-12T04:38:02;95012.03;;;13.95;100.00
33155;BME280;19511;42.682;23.332;2022-09-12T04:40:28;94967.50;;;13.66;100.00
33155;BME280;19511;42.682;23.332;2022-09-12T04:42:54;95025.06;;;14.15;100.00
33155;BME280;19511;42.682;23.332;2022-09-12T04:45:20;95017.47;;;14.15;100.00
33155;BME280;19511;42.682;23.332;2022-09-12T04:47:46;94979.31;;;13.86;100.00
33155;BME280;19511;42.682;23.332;2022-09-12T04:50:11;95025.22;;;14.24;100.00
33155;BME280;19511;42.682;23.332;2022-09-12T04:52:37;94985.16;;;14.05;100.00
33155;BME280;19511;42.682;23.332;2022-09-12T04:55:02;94965.13;;;13.97;100.00
33155;BME280;19511;42.682;23.332;2022-09-12T04:57:28;95023.97;;;14.42;100.00
33155;BME280;19511;42.682;23.332;2022-09-12T04:59:53;94950.09;;;13.95;100.00
33155;BME280;19511;42.682;23.332;2022-09-12T05:02:19;95018.94;;;14.36;100.00
33155;BME280;19511;42.682;23.332;2022-09-12T05:04:45;95028.97;;;14.47;100.00
33155;BME280;19511;42.682;23.332;2022-09-12T05:07:11;95026.88;;;14.51;100.00
33155;BME280;19511;42.682;23.332;2022-09-12T05:09:36;95030.69;;;14.57;100.00
33155;BME280;19511;42.682;23.332;2022-09-12T05:12:02;95027.75;;;14.64;100.00
33155;BME280;19511;42.682;23.332;2022-09-12T05:14:28;95031.22;;;14.68;100.00
33155;BME280;19511;42.682;23.332;2022-09-12T05:16:53;95016.16;;;14.66;100.00
33155;BME280;19511;42.682;23.332;2022-09-12T05:19:23;95021.66;;;14.69;100.00
33155;BME280;19511;42.682;23.332;2022-09-12T05:21:49;95032.28;;;14.88;100.00
33155;BME280;19511;42.682;23.332;2022-09-12T05:24:14;95025.69;;;14.94;100.00
33155;BME280;19511;42.682;23.332;2022-09-12T05:26:40;94974.94;;;14.61;100.00
33155;BME280;19511;42.682;23.332;2022-09-12T05:29:05;94952.75;;;14.57;100.00
33155;BME280;19511;42.682;23.332;2022-09-12T05:31:31;95030.31;;;15.14;100.00
33155;BME280;19511;42.682;23.332;2022-09-12T05:33:57;94985.19;;;14.93;100.00
33155;BME280;19511;42.682;23.332;2022-09-12T05:36:25;95011.38;;;15.09;100.00
33155;BME280;19511;42.682;23.332;2022-09-12T05:38:53;94982.03;;;14.91;100.00
33155;BME280;19511;42.682;23.332;2022-09-12T05:41:28;95027.66;;;15.36;100.00
33155;BME280;19511;42.682;23.332;2022-09-12T05:44:00;94979.63;;;15.06;100.00
33155;BME280;19511;42.682;23.332;2022-09-12T05:46:31;94973.59;;;15.08;100.00
33155;BME280;19511;42.682;23.332;2022-09-12T05:49:01;94981.09;;;15.24;100.00
33155;BME280;19511;42.682;23.332;2022-09-12T05:51:31;94977.41;;;15.27;100.00
33155;BME280;19511;42.682;23.332;2022-09-12T05:53:59;95025.91;;;15.68;100.00
33155;BME280;19511;42.682;23.332;2022-09-12T05:56:27;94961.69;;;15.33;100.00
33155;BME280;19511;42.682;23.332;2022-09-12T05:59:09;95017.63;;;15.77;100.00
33155;BME280;19511;42.682;23.332;2022-09-12T06:01:40;94952.97;;;15.57;100.00
33155;BME280;19511;42.682;23.332;2022-09-12T06:04:10;95000.75;;;16.07;100.00
33155;BME280;19511;42.682;23.332;2022-09-12T06:06:41;95005.13;;;16.08;100.00
33155;BME280;19511;42.682;23.332;2022-09-12T06:09:07;94996.22;;;16.00;100.00
33155;BME280;19511;42.682;23.332;2022-09-12T06:11:34;95004.19;;;16.11;100.00
33155;BME280;19511;42.682;23.332;2022-09-12T06:14:01;94998.72;;;16.20;100.00
33155;BME280;19511;42.682;23.332;2022-09-12T06:16:30;94991.66;;;16.28;100.00
33155;BME280;19511;42.682;23.332;2022-09-12T06:19:00;94988.09;;;16.28;100.00
33155;BME280;19511;42.682;23.332;2022-09-12T06:21:27;95002.19;;;16.46;100.00
33155;BME280;19511;42.682;23.332;2022-09-12T06:23:56;94953.75;;;16.18;100.00
33155;BME280;19511;42.682;23.332;2022-09-12T06:26:23;95007.53;;;16.54;100.00
33155;BME280;19511;42.682;23.332;2022-09-12T06:28:50;94996.28;;;16.44;100.00
33155;BME280;19511;42.682;23.332;2022-09-12T06:31:18;95000.84;;;16.51;100.00
33155;BME280;19511;42.682;23.332;2022-09-12T06:33:47;95018.31;;;16.64;100.00
33155;BME280;19511;42.682;23.332;2022-09-12T06:36:19;95018.50;;;16.70;100.00
33155;BME280;19511;42.682;23.332;2022-09-12T06:38:45;94979.41;;;16.48;100.00
33155;BME280;19511;42.682;23.332;2022-09-12T06:41:12;95009.03;;;16.68;100.00
33155;BME280;19511;42.682;23.332;2022-09-12T06:43:38;95018.19;;;16.90;100.00
33155;BME280;19511;42.682;23.332;2022-09-12T06:46:04;95019.97;;;16.97;100.00
33155;BME280;19511;42.682;23.332;2022-09-12T06:48:30;95023.44;;;16.88;100.00
33155;BME280;19511;42.682;23.332;2022-09-12T06:51:00;95031.34;;;17.03;100.00
33155;BME280;19511;42.682;23.332;2022-09-12T06:53:27;94971.50;;;16.69;100.00
33155;BME280;19511;42.682;23.332;2022-09-12T06:55:57;95020.22;;;17.12;100.00
33155;BME280;19511;42.682;23.332;2022-09-12T06:58:24;95033.22;;;17.06;100.00
33155;BME280;19511;42.682;23.332;2022-09-12T07:00:49;95023.69;;;16.81;100.00
33155;BME280;19511;42.682;23.332;2022-09-12T07:03:15;95019.56;;;16.86;100.00
33155;BME280;19511;42.682;23.332;2022-09-12T07:05:40;95024.16;;;16.79;100.00
33155;BME280;19511;42.682;23.332;2022-09-12T07:08:06;95027.94;;;16.86;100.00
33155;BME280;19511;42.682;23.332;2022-09-12T07:10:32;95032.38;;;16.96;100.00
33155;BME280;19511;42.682;23.332;2022-09-12T07:16:19;95034.88;;;17.25;100.00
33155;BME280;19511;42.682;23.332;2022-09-12T07:18:50;95032.41;;;17.27;100.00
33155;BME280;19511;42.682;23.332;2022-09-12T07:21:15;95023.69;;;17.25;100.00
33155;BME280;19511;42.682;23.332;2022-09-12T07:23:41;95017.22;;;17.28;100.00
33155;BME280;19511;42.682;23.332;2022-09-12T07:26:09;95035.94;;;17.50;100.00
33155;BME280;19511;42.682;23.332;2022-09-12T07:28:38;95030.94;;;17.76;100.00
33155;BME280;19511;42.682;23.332;2022-09-12T07:31:14;94983.28;;;17.49;100.00
33155;BME280;19511;42.682;23.332;2022-09-12T07:33:41;95026.38;;;17.70;100.00
33155;BME280;19511;42.682;23.332;2022-09-12T07:36:18;94965.69;;;17.39;100.00
33155;BME280;19511;42.682;23.332;2022-09-12T07:38:44;95037.13;;;17.71;100.00
33155;BME280;19511;42.682;23.332;2022-09-12T07:41:16;95010.22;;;17.65;100.00
33155;BME280;19511;42.682;23.332;2022-09-12T07:43:42;95010.91;;;17.87;100.00
33155;BME280;19511;42.682;23.332;2022-09-12T07:46:08;95018.16;;;18.07;100.00
33155;BME280;19511;42.682;23.332;2022-09-12T07:48:33;95019.09;;;18.22;100.00
33155;BME280;19511;42.682;23.332;2022-09-12T07:51:00;94970.88;;;18.09;100.00
33155;BME280;19511;42.682;23.332;2022-09-12T07:53:35;95029.41;;;18.44;100.00
33155;BME280;19511;42.682;23.332;2022-09-12T07:56:01;95019.13;;;18.59;100.00
33155;BME280;19511;42.682;23.332;2022-09-12T07:58:29;95018.81;;;18.85;100.00
33155;BME280;19511;42.682;23.332;2022-09-12T08:01:14;94976.31;;;18.77;100.00
33155;BME280;19511;42.682;23.332;2022-09-12T08:03:41;95018.19;;;18.81;100.00
33155;BME280;19511;42.682;23.332;2022-09-12T08:06:10;95022.72;;;18.69;100.00
33155;BME280;19511;42.682;23.332;2022-09-12T08:08:36;95019.59;;;18.67;100.00
33155;BME280;19511;42.682;23.332;2022-09-12T08:11:05;95018.19;;;18.81;100.00
33155;BME280;19511;42.682;23.332;2022-09-12T08:13:33;95025.03;;;18.80;100.00
33155;BME280;19511;42.682;23.332;2022-09-12T08:16:00;94956.09;;;18.55;100.00
33155;BME280;19511;42.682;23.332;2022-09-12T08:18:27;94972.00;;;18.58;100.00
33155;BME280;19511;42.682;23.332;2022-09-12T08:21:00;95015.72;;;18.92;100.00
33155;BME280;19511;42.682;23.332;2022-09-12T08:23:27;95015.69;;;19.11;100.00
33155;BME280;19511;42.682;23.332;2022-09-12T08:25:56;95022.22;;;19.17;100.00
33155;BME280;19511;42.682;23.332;2022-09-12T08:28:24;95023.47;;;19.07;100.00
33155;BME280;19511;42.682;23.332;2022-09-12T08:30:49;95017.88;;;18.98;100.00
33155;BME280;19511;42.682;23.332;2022-09-12T08:33:15;94964.66;;;18.60;100.00
33155;BME280;19511;42.682;23.332;2022-09-12T08:35:40;94959.69;;;18.65;100.00
33155;BME280;19511;42.682;23.332;2022-09-12T08:38:06;95006.34;;;19.14;100.00
33155;BME280;19511;42.682;23.332;2022-09-12T08:41:00;95009.78;;;19.09;100.00
33155;BME280;19511;42.682;23.332;2022-09-12T08:46:10;95006.34;;;18.96;100.00
33155;BME280;19511;42.682;23.332;2022-09-12T08:48:40;94992.97;;;18.90;100.00
33155;BME280;19511;42.682;23.332;2022-09-12T08:51:09;95026.28;;;19.07;100.00
33155;BME280;19511;42.682;23.332;2022-09-12T08:53:36;95009.47;;;19.16;100.00
33155;BME280;19511;42.682;23.332;2022-09-12T08:56:04;94986.06;;;19.19;100.00
33155;BME280;19511;42.682;23.332;2022-09-12T08:58:37;95002.72;;;19.23;100.00
33155;BME280;19511;42.682;23.332;2022-09-12T09:07:01;95001.41;;;18.44;100.00
33155;BME280;19511;42.682;23.332;2022-09-12T09:09:53;95006.06;;;18.75;100.00
33155;BME280;19511;42.682;23.332;2022-09-12T09:18:03;94992.31;;;19.14;100.00
33155;BME280;19511;42.682;23.332;2022-09-12T09:20:33;94990.16;;;19.09;100.00
33155;BME280;19511;42.682;23.332;2022-09-12T09:23:15;94969.13;;;19.14;100.00
33155;BME280;19511;42.682;23.332;2022-09-12T09:28:27;94985.88;;;19.41;100.00
33155;BME280;19511;42.682;23.332;2022-09-12T09:30:55;94982.97;;;19.08;100.00
33155;BME280;19511;42.682;23.332;2022-09-12T09:33:24;94975.03;;;19.16;100.00
33155;BME280;19511;42.682;23.332;2022-09-12T09:39:26;94975.94;;;19.65;100.00
33155;BME280;19511;42.682;23.332;2022-09-12T09:44:22;94961.44;;;19.33;100.00
33155;BME280;19511;42.682;23.332;2022-09-12T09:46:53;94981.81;;;19.33;100.00
33155;BME280;19511;42.682;23.332;2022-09-12T09:49:20;94959.28;;;19.28;100.00
33155;BME280;19511;42.682;23.332;2022-09-12T09:51:46;94974.94;;;19.44;100.00
33155;BME280;19511;42.682;23.332;2022-09-12T09:56:42;94958.78;;;19.63;100.00
33155;BME280;19511;42.682;23.332;2022-09-12T10:01:50;94965.25;;;19.87;100.00
33155;BME280;19511;42.682;23.332;2022-09-12T10:04:22;94960.31;;;19.82;100.00
33155;BME280;19511;42.682;23.332;2022-09-12T10:06:53;94940.00;;;19.87;100.00
33155;BME280;19511;42.682;23.332;2022-09-12T10:09:24;94945.25;;;19.95;100.00
33155;BME280;19511;42.682;23.332;2022-09-12T10:11:55;94959.16;;;20.13;100.00
33155;BME280;19511;42.682;23.332;2022-09-12T10:14:31;94949.13;;;20.21;100.00
33155;BME280;19511;42.682;23.332;2022-09-12T10:16:59;94905.31;;;20.00;100.00
33155;BME280;19511;42.682;23.332;2022-09-12T10:19:36;94891.00;;;20.13;100.00
33155;BME280;19511;42.682;23.332;2022-09-12T10:22:03;94911.91;;;20.12;100.00
33155;BME280;19511;42.682;23.332;2022-09-12T10:24:32;94949.94;;;20.37;100.00
33155;BME280;19511;42.682;23.332;2022-09-12T10:32:18;94937.28;;;20.56;100.00
33155;BME280;19511;42.682;23.332;2022-09-12T10:34:45;94940.50;;;20.49;100.00
33155;BME280;19511;42.682;23.332;2022-09-12T10:37:32;94938.94;;;20.48;100.00
33155;BME280;19511;42.682;23.332;2022-09-12T10:39:58;94962.06;;;20.43;100.00
33155;BME280;19511;42.682;23.332;2022-09-12T10:42:45;94914.19;;;20.37;100.00
33155;BME280;19511;42.682;23.332;2022-09-12T10:47:49;94894.34;;;20.41;100.00
33155;BME280;19511;42.682;23.332;2022-09-12T10:50:39;94946.28;;;20.85;100.00
33155;BME280;19511;42.682;23.332;2022-09-12T10:53:28;94946.97;;;20.55;100.00
33155;BME280;19511;42.682;23.332;2022-09-12T10:56:08;94949.41;;;20.63;100.00
33155;BME280;19511;42.682;23.332;2022-09-12T10:58:46;94949.66;;;20.74;100.00
33155;BME280;19511;42.682;23.332;2022-09-12T11:01:19;94945.59;;;20.90;100.00
33155;BME280;19511;42.682;23.332;2022-09-12T11:07:08;94955.22;;;20.59;100.00
33155;BME280;19511;42.682;23.332;2022-09-12T11:12:28;94955.03;;;20.23;100.00
33155;BME280;19511;42.682;23.332;2022-09-12T11:29:39;94963.72;;;20.50;100.00
33155;BME280;19511;42.682;23.332;2022-09-12T11:37:42;94939.59;;;20.43;100.00
33155;BME280;19511;42.682;23.332;2022-09-12T11:40:19;94942.63;;;20.54;100.00
33155;BME280;19511;42.682;23.332;2022-09-12T11:42:51;94917.00;;;20.37;100.00
33155;BME280;19511;42.682;23.332;2022-09-12T11:45:41;94952.34;;;20.68;100.00
33155;BME280;19511;42.682;23.332;2022-09-12T11:48:28;94900.28;;;20.43;100.00
33155;BME280;19511;42.682;23.332;2022-09-12T11:50:57;94935.03;;;20.85;100.00
33155;BME280;19511;42.682;23.332;2022-09-12T11:53:27;94939.00;;;20.78;100.00
33155;BME280;19511;42.682;23.332;2022-09-12T11:56:03;94947.38;;;20.48;100.00
33155;BME280;19511;42.682;23.332;2022-09-12T11:58:30;94906.94;;;20.31;100.00
33155;BME280;19511;42.682;23.332;2022-09-12T12:01:11;94939.19;;;20.75;100.00
33155;BME280;19511;42.682;23.332;2022-09-12T12:03:41;94946.84;;;20.74;100.00
33155;BME280;19511;42.682;23.332;2022-09-12T12:06:17;94887.38;;;20.51;100.00
33155;BME280;19511;42.682;23.332;2022-09-12T12:08:45;94943.34;;;20.79;100.00
33155;BME280;19511;42.682;23.332;2022-09-12T12:11:13;94929.00;;;20.77;100.00
33155;BME280;19511;42.682;23.332;2022-09-12T12:13:43;94931.25;;;20.88;100.00
33155;BME280;19511;42.682;23.332;2022-09-12T12:16:30;94930.69;;;20.99;100.00
33155;BME280;19511;42.682;23.332;2022-09-12T12:19:03;94926.97;;;21.08;100.00
33155;BME280;19511;42.682;23.332;2022-09-12T12:21:40;94876.00;;;20.85;100.00
33155;BME280;19511;42.682;23.332;2022-09-12T12:26:43;94937.28;;;20.56;100.00
33155;BME280;19511;42.682;23.332;2022-09-12T12:44:58;94919.28;;;20.48;100.00
33155;BME280;19511;42.682;23.332;2022-09-12T12:47:27;94930.78;;;20.35;100.00
33155;BME280;19511;42.682;23.332;2022-09-12T12:50:21;94924.66;;;19.98;100.00
33155;BME280;19511;42.682;23.332;2022-09-12T12:58:00;94922.03;;;19.61;100.00
33155;BME280;19511;42.682;23.332;2022-09-12T13:05:49;94943.84;;;19.66;100.00
33155;BME280;19511;42.682;23.332;2022-09-12T13:10:51;94933.38;;;19.66;100.00
33155;BME280;19511;42.682;23.332;2022-09-12T13:13:27;94945.47;;;19.48;100.00
33155;BME280;19511;42.682;23.332;2022-09-12T13:15:56;94934.84;;;19.52;100.00
33155;BME280;19511;42.682;23.332;2022-09-12T13:18:28;94941.03;;;19.66;100.00
33155;BME280;19511;42.682;23.332;2022-09-12T13:23:30;94933.94;;;19.46;100.00
33155;BME280;19511;42.682;23.332;2022-09-12T13:26:01;94921.22;;;19.36;100.00
33155;BME280;19511;42.682;23.332;2022-09-12T13:28:29;94929.63;;;19.36;100.00
33155;BME280;19511;42.682;23.332;2022-09-12T13:31:20;94928.66;;;19.48;100.00
33155;BME280;19511;42.682;23.332;2022-09-12T13:33:48;94924.53;;;19.58;100.00
33155;BME280;19511;42.682;23.332;2022-09-12T13:45:02;94921.13;;;19.54;100.00
33155;BME280;19511;42.682;23.332;2022-09-12T13:47:39;94856.44;;;19.34;100.00
33155;BME280;19511;42.682;23.332;2022-09-12T13:50:07;94912.22;;;19.89;100.00
33155;BME280;19511;42.682;23.332;2022-09-12T13:52:45;94902.38;;;19.94;100.00
33155;BME280;19511;42.682;23.332;2022-09-12T13:55:24;94911.78;;;20.06;100.00
33155;BME280;19511;42.682;23.332;2022-09-12T13:58:04;94917.72;;;20.08;100.00
33155;BME280;19511;42.682;23.332;2022-09-12T14:00:38;94912.00;;;20.02;100.00
33155;BME280;19511;42.682;23.332;2022-09-12T14:03:31;94908.53;;;19.83;100.00
33155;BME280;19511;42.682;23.332;2022-09-12T14:06:18;94900.31;;;19.95;100.00
33155;BME280;19511;42.682;23.332;2022-09-12T14:08:50;94924.06;;;19.94;100.00
33155;BME280;19511;42.682;23.332;2022-09-12T14:11:29;94906.53;;;19.74;100.00
33155;BME280;19511;42.682;23.332;2022-09-12T14:13:59;94910.94;;;19.66;100.00
33155;BME280;19511;42.682;23.332;2022-09-12T14:16:30;94922.16;;;19.66;100.00
33155;BME280;19511;42.682;23.332;2022-09-12T14:19:00;94911.44;;;19.31;100.00
33155;BME280;19511;42.682;23.332;2022-09-12T14:21:31;94921.91;;;19.21;100.00
33155;BME280;19511;42.682;23.332;2022-09-12T14:23:58;94925.63;;;19.28;100.00
33155;BME280;19511;42.682;23.332;2022-09-12T14:26:27;94927.09;;;19.47;100.00
33155;BME280;19511;42.682;23.332;2022-09-12T14:28:57;94914.44;;;19.52;100.00
33155;BME280;19511;42.682;23.332;2022-09-12T14:33:55;94921.63;;;19.53;100.00
33155;BME280;19511;42.682;23.332;2022-09-12T14:38:54;94928.19;;;19.74;100.00
33155;BME280;19511;42.682;23.332;2022-09-12T14:41:26;94918.31;;;19.54;100.00
33155;BME280;19511;42.682;23.332;2022-09-12T14:43:59;94931.97;;;19.71;100.00
33155;BME280;19511;42.682;23.332;2022-09-12T14:49:05;94935.03;;;19.73;100.00
33155;BME280;19511;42.682;23.332;2022-09-12T14:51:34;94925.38;;;19.74;100.00
33155;BME280;19511;42.682;23.332;2022-09-12T14:54:01;94932.72;;;19.71;100.00
33155;BME280;19511;42.682;23.332;2022-09-12T14:56:40;94929.94;;;19.38;100.00
33155;BME280;19511;42.682;23.332;2022-09-12T15:04:44;94931.00;;;18.88;100.00
33155;BME280;19511;42.682;23.332;2022-09-12T15:09:47;94938.50;;;18.82;100.00
33155;BME280;19511;42.682;23.332;2022-09-12T15:12:13;94926.31;;;18.85;100.00
33155;BME280;19511;42.682;23.332;2022-09-12T15:14:38;94934.44;;;18.92;100.00
33155;BME280;19511;42.682;23.332;2022-09-12T15:17:04;94934.88;;;19.00;100.00
33155;BME280;19511;42.682;23.332;2022-09-12T15:19:29;94931.59;;;19.02;100.00
33155;BME280;19511;42.682;23.332;2022-09-12T15:21:55;94928.16;;;19.07;100.00
33155;BME280;19511;42.682;23.332;2022-09-12T15:24:20;94934.72;;;19.04;100.00
33155;BME280;19511;42.682;23.332;2022-09-12T15:26:46;94932.25;;;19.06;100.00
33155;BME280;19511;42.682;23.332;2022-09-12T15:29:14;94937.06;;;19.05;100.00
33155;BME280;19511;42.682;23.332;2022-09-12T15:31:40;94940.22;;;18.98;100.00
33155;BME280;19511;42.682;23.332;2022-09-12T15:34:05;94912.78;;;18.84;100.00
33155;BME280;19511;42.682;23.332;2022-09-12T15:36:31;94936.94;;;18.90;100.00
33155;BME280;19511;42.682;23.332;2022-09-12T15:38:57;94883.28;;;18.55;100.00
33155;BME280;19511;42.682;23.332;2022-09-12T15:41:32;94932.25;;;18.87;100.00
33155;BME280;19511;42.682;23.332;2022-09-12T15:44:05;94885.63;;;18.47;100.00
33155;BME280;19511;42.682;23.332;2022-09-12T15:46:32;94916.09;;;18.73;100.00